createdAt,value
2022-11-28T00:01:22.226Z,6.00
2022-11-28T00:03:48.675Z,6.02
2022-11-28T00:06:15.713Z,6.00
2022-11-28T00:08:42.396Z,6.11
2022-11-28T00:11:10.792Z,6.16
2022-11-28T00:13:37.465Z,6.18
2022-11-28T00:16:06.950Z,6.24
2022-11-28T00:18:33.591Z,6.22
2022-11-28T00:21:06.410Z,6.29
2022-11-28T00:23:33.656Z,6.25
2022-11-28T00:26:13.838Z,6.27
2022-11-28T00:28:40.255Z,6.25
2022-11-28T00:31:06.774Z,6.22
2022-11-28T00:33:33.562Z,6.25
2022-11-28T00:36:02.734Z,6.27
2022-11-28T00:38:29.580Z,6.21
2022-11-28T00:41:00.855Z,6.23
2022-11-28T00:43:28.066Z,6.23
2022-11-28T00:45:55.609Z,6.19
2022-11-28T00:48:22.072Z,6.22
2022-11-28T00:50:48.789Z,6.21
2022-11-28T00:53:15.261Z,6.20
2022-11-28T00:55:41.636Z,6.24
2022-11-28T00:58:08.444Z,6.24
2022-11-28T01:00:34.847Z,6.24
2022-11-28T01:03:01.255Z,6.23
2022-11-28T01:05:27.639Z,6.25
2022-11-28T01:07:54.168Z,6.24
2022-11-28T01:10:20.609Z,6.24
2022-11-28T01:12:47.008Z,6.22
2022-11-28T01:15:13.866Z,6.19
2022-11-28T01:17:41.269Z,6.21
2022-11-28T01:20:08.837Z,6.18
2022-11-28T01:22:35.200Z,6.19
2022-11-28T01:25:01.553Z,6.17
2022-11-28T01:27:27.920Z,6.18
2022-11-28T01:29:54.271Z,6.18
2022-11-28T01:32:20.645Z,6.16
2022-11-28T01:34:47.019Z,6.10
2022-11-28T01:37:13.403Z,6.14
2022-11-28T01:39:39.806Z,6.17
2022-11-28T01:42:06.256Z,6.15
2022-11-28T01:44:32.554Z,6.18
2022-11-28T01:46:58.962Z,6.17
2022-11-28T01:49:33.524Z,6.16
2022-11-28T01:52:04.925Z,6.16
2022-11-28T01:54:33.025Z,6.19
2022-11-28T01:57:02.824Z,6.17
2022-11-28T01:59:34.793Z,6.19
2022-11-28T02:02:06.345Z,6.16
2022-11-28T02:04:34.151Z,6.15
2022-11-28T02:07:00.848Z,6.16
2022-11-28T02:09:27.371Z,6.17
2022-11-28T02:12:09.444Z,6.18
2022-11-28T02:14:50.059Z,6.20
2022-11-28T02:17:26.532Z,6.23
2022-11-28T02:20:14.002Z,6.22
2022-11-28T02:23:02.137Z,6.27
2022-11-28T02:26:04.062Z,6.25
2022-11-28T02:29:12.376Z,6.25
2022-11-28T02:32:10.897Z,6.30
2022-11-28T02:34:43.091Z,6.31
2022-11-28T02:37:34.302Z,6.29
2022-11-28T02:40:25.416Z,6.32
2022-11-28T02:43:29.226Z,6.36
2022-11-28T02:46:21.981Z,6.36
2022-11-28T02:48:55.005Z,6.41
2022-11-28T02:51:39.632Z,6.39
2022-11-28T02:54:09.534Z,6.42
2022-11-28T02:56:35.938Z,6.45
2022-11-28T02:59:02.334Z,6.44
2022-11-28T03:01:33.899Z,6.45
2022-11-28T03:04:04.444Z,6.55
2022-11-28T03:06:53.469Z,6.51
2022-11-28T03:09:28.674Z,6.61
2022-11-28T03:12:10.231Z,6.60
2022-11-28T03:14:55.218Z,6.63
2022-11-28T03:17:41.567Z,6.66
2022-11-28T03:20:14.746Z,6.65
2022-11-28T03:22:55.929Z,6.61
2022-11-28T03:25:40.632Z,6.62
2022-11-28T03:28:14.675Z,6.63
2022-11-28T03:30:49.008Z,6.66
2022-11-28T03:33:17.120Z,6.69
2022-11-28T03:35:49.037Z,6.69
2022-11-28T03:38:22.156Z,6.70
2022-11-28T03:40:53.253Z,6.74
2022-11-28T03:43:24.582Z,6.73
2022-11-28T03:45:56.200Z,6.79
2022-11-28T03:48:40.176Z,6.73
2022-11-28T03:51:12.254Z,6.77
2022-11-28T03:53:59.095Z,6.78
2022-11-28T03:56:38.436Z,6.79
2022-11-28T03:59:12.437Z,6.79
2022-11-28T04:01:53.369Z,6.81
2022-11-28T04:04:30.649Z,6.84
2022-11-28T04:07:21.055Z,6.92
2022-11-28T04:09:51.774Z,6.89
2022-11-28T04:12:40.667Z,6.90
2022-11-28T04:15:14.697Z,6.94
2022-11-28T04:18:38.081Z,6.97
2022-11-28T04:21:10.249Z,6.99
2022-11-28T04:23:40.042Z,6.96
2022-11-28T04:26:23.255Z,6.92
2022-11-28T04:28:52.642Z,6.89
2022-11-28T04:31:22.751Z,6.85
2022-11-28T04:33:56.669Z,6.84
2022-11-28T04:36:25.791Z,6.81
2022-11-28T04:38:57.321Z,6.84
2022-11-28T04:41:30.766Z,6.83
2022-11-28T04:44:08.855Z,6.82
2022-11-28T04:46:41.694Z,6.82
2022-11-28T04:49:08.118Z,6.85
2022-11-28T04:51:48.374Z,6.83
2022-11-28T04:54:27.679Z,6.81
2022-11-28T04:57:29.387Z,6.79
2022-11-28T04:59:56.436Z,6.79
2022-11-28T05:02:24.171Z,6.78
2022-11-28T05:04:53.273Z,6.77
2022-11-28T05:07:19.768Z,6.80
2022-11-28T05:09:46.136Z,6.79
2022-11-28T05:12:12.513Z,6.82
2022-11-28T05:14:40.905Z,6.79
2022-11-28T05:17:08.081Z,6.81
2022-11-28T05:19:34.459Z,6.81
2022-11-28T05:22:00.793Z,6.84
2022-11-28T05:24:32.061Z,6.81
2022-11-28T05:26:58.819Z,6.84
2022-11-28T05:29:25.652Z,6.86
2022-11-28T05:31:52.075Z,6.84
2022-11-28T05:34:18.511Z,6.86
2022-11-28T05:36:44.838Z,6.84
2022-11-28T05:39:11.204Z,6.87
2022-11-28T05:41:37.616Z,6.91
2022-11-28T05:44:04.053Z,6.89
2022-11-28T05:46:30.481Z,6.88
2022-11-28T05:48:57.292Z,6.90
2022-11-28T05:51:23.683Z,6.95
2022-11-28T05:53:50.132Z,6.91
2022-11-28T05:56:19.244Z,6.93
2022-11-28T05:58:45.766Z,6.93
2022-11-28T06:01:18.029Z,6.95
2022-11-28T06:03:45.040Z,6.95
2022-11-28T06:06:22.315Z,6.97
2022-11-28T06:08:51.478Z,6.98
2022-11-28T06:11:19.717Z,7.00
2022-11-28T06:13:47.905Z,7.01
2022-11-28T06:16:20.193Z,7.03
2022-11-28T06:18:46.650Z,7.02
2022-11-28T06:21:14.473Z,7.04
2022-11-28T06:23:41.057Z,7.06
2022-11-28T06:26:13.947Z,7.08
2022-11-28T06:28:41.498Z,7.05
2022-11-28T06:31:16.808Z,7.12
2022-11-28T06:33:43.305Z,7.11
2022-11-28T06:36:11.431Z,7.11
2022-11-28T06:38:37.787Z,7.11
2022-11-28T06:41:07.022Z,7.16
2022-11-28T06:43:33.983Z,7.20
2022-11-28T06:46:00.677Z,7.13
2022-11-28T06:48:27.483Z,7.17
2022-11-28T06:50:54.333Z,7.21
2022-11-28T06:53:20.975Z,7.18
2022-11-28T06:55:47.563Z,7.21
2022-11-28T06:58:13.909Z,7.24
2022-11-28T07:00:40.253Z,7.30
2022-11-28T07:03:06.626Z,7.29
2022-11-28T07:05:32.996Z,7.32
2022-11-28T07:07:59.550Z,7.33
2022-11-28T07:10:27.787Z,7.30
2022-11-28T07:12:55.632Z,7.34
2022-11-28T07:15:22.377Z,7.35
2022-11-28T07:17:49.011Z,7.41
2022-11-28T07:20:15.538Z,7.38
2022-11-28T07:22:43.568Z,7.38
2022-11-28T07:25:10.910Z,7.37
2022-11-28T07:27:37.295Z,7.42
2022-11-28T07:30:03.924Z,7.40
2022-11-28T07:32:30.312Z,7.44
2022-11-28T07:34:56.656Z,7.43
2022-11-28T07:37:23.005Z,7.46
2022-11-28T07:39:49.349Z,7.44
2022-11-28T07:42:15.742Z,7.45
2022-11-28T07:44:42.095Z,7.46
2022-11-28T07:47:08.553Z,7.45
2022-11-28T07:49:34.948Z,7.48
2022-11-28T07:52:01.360Z,7.47
2022-11-28T07:54:27.770Z,7.49
2022-11-28T07:57:11.858Z,7.47
2022-11-28T07:59:38.591Z,7.49
2022-11-28T08:02:05.078Z,7.51
2022-11-28T08:04:31.473Z,7.49
2022-11-28T08:06:58.126Z,7.51
2022-11-28T08:09:24.545Z,7.50
2022-11-28T08:11:52.451Z,7.50
2022-11-28T08:14:19.017Z,7.53
2022-11-28T08:16:46.556Z,7.49
2022-11-28T08:19:13.169Z,7.50
2022-11-28T08:21:39.551Z,7.51
2022-11-28T08:24:07.966Z,7.51
2022-11-28T08:26:35.344Z,7.54
2022-11-28T08:29:02.701Z,7.52
2022-11-28T08:31:32.431Z,7.56
2022-11-28T08:34:01.421Z,7.58
2022-11-28T08:36:29.313Z,7.61
2022-11-28T08:39:22.801Z,7.62
2022-11-28T08:41:42.922Z,7.56
2022-11-28T08:44:09.268Z,7.61
2022-11-28T08:46:36.241Z,7.63
2022-11-28T08:49:04.550Z,7.63
2022-11-28T08:51:31.808Z,7.63
2022-11-28T08:53:59.852Z,7.68
2022-11-28T08:56:26.741Z,7.71
2022-11-28T08:58:53.099Z,7.68
2022-11-28T09:01:24.407Z,7.76
2022-11-28T09:03:51.728Z,7.70
2022-11-28T09:06:18.650Z,7.73
2022-11-28T09:08:45.141Z,7.74
2022-11-28T09:11:14.640Z,7.79
2022-11-28T09:13:41.668Z,7.77
2022-11-28T09:16:08.756Z,7.75
2022-11-28T09:18:35.701Z,7.78
2022-11-28T09:21:05.802Z,7.78
2022-11-28T09:23:32.171Z,7.83
2022-11-28T09:25:58.560Z,7.75
2022-11-28T09:28:25.073Z,7.78
2022-11-28T09:31:00.283Z,7.83
2022-11-28T09:33:26.853Z,7.86
2022-11-28T09:35:55.256Z,7.84
2022-11-28T09:38:23.085Z,7.83
2022-11-28T09:40:49.792Z,7.90
2022-11-28T09:43:23.450Z,7.85
2022-11-28T09:45:52.519Z,7.90
2022-11-28T09:48:35.335Z,7.84
2022-11-28T09:51:09.669Z,7.91
2022-11-28T09:53:46.012Z,7.88
2022-11-28T09:56:15.957Z,7.93
2022-11-28T09:58:56.034Z,7.90
2022-11-28T10:01:56.624Z,7.91
2022-11-28T10:04:42.609Z,7.92
2022-11-28T10:07:36.810Z,7.93
2022-11-28T10:10:34.423Z,7.92
2022-11-28T10:13:16.707Z,7.92
2022-11-28T10:15:56.779Z,7.91
2022-11-28T10:18:36.033Z,7.91
2022-11-28T10:21:18.073Z,7.94
2022-11-28T10:23:46.836Z,7.92
2022-11-28T10:26:28.780Z,7.94
2022-11-28T10:28:57.649Z,7.94
2022-11-28T10:31:44.569Z,7.97
2022-11-28T10:34:24.904Z,7.99
2022-11-28T10:37:00.806Z,8.02
2022-11-28T10:39:27.670Z,7.95
2022-11-28T10:42:14.244Z,7.97
2022-11-28T11:03:38.064Z,7.95
2022-11-28T11:06:04.632Z,7.90
2022-11-28T11:08:36.732Z,7.87
2022-11-28T11:11:23.779Z,7.90
2022-11-28T11:14:32.034Z,7.88
2022-11-28T11:17:01.460Z,7.86
2022-11-28T11:19:39.391Z,7.87
2022-11-28T11:22:25.978Z,7.85
2022-11-28T11:25:32.536Z,7.83
2022-11-28T11:28:01.670Z,7.84
2022-11-28T11:30:28.178Z,7.86
2022-11-28T11:32:57.079Z,7.80
2022-11-28T11:35:27.784Z,7.84
2022-11-28T11:38:14.821Z,7.87
2022-11-28T11:40:41.211Z,7.79
2022-11-28T11:43:21.702Z,7.89
2022-11-28T11:46:03.327Z,7.73
2022-11-28T11:48:44.372Z,7.91
2022-11-28T11:51:25.287Z,7.87
2022-11-28T11:54:12.974Z,7.85
2022-11-28T11:56:43.770Z,7.86
2022-11-28T11:59:33.337Z,7.91
2022-11-28T12:02:14.924Z,7.93
2022-11-28T12:04:51.091Z,7.84
2022-11-28T12:07:32.303Z,7.88
2022-11-28T12:10:04.132Z,7.89
2022-11-28T12:12:36.339Z,7.90
2022-11-28T12:15:02.783Z,7.92
2022-11-28T12:17:59.088Z,7.89
2022-11-28T12:20:44.333Z,7.90
2022-11-28T12:23:29.000Z,7.91
2022-11-28T12:26:07.697Z,7.94
2022-11-28T12:29:11.930Z,7.92
2022-11-28T12:31:55.158Z,7.92
2022-11-28T12:34:53.439Z,7.91
2022-11-28T12:37:37.231Z,7.93
2022-11-28T12:40:24.530Z,7.92
2022-11-28T12:43:19.989Z,7.97
2022-11-28T12:46:04.006Z,7.98
2022-11-28T12:49:03.788Z,8.03
2022-11-28T12:51:48.928Z,7.99
2022-11-28T12:55:01.957Z,8.02
2022-11-28T12:57:40.006Z,8.02
2022-11-28T13:00:23.819Z,7.96
2022-11-28T13:03:23.497Z,8.01
2022-11-28T13:06:16.430Z,7.98
2022-11-28T13:08:55.437Z,7.96
2022-11-28T13:11:37.117Z,7.96
2022-11-28T13:14:20.797Z,8.01
2022-11-28T13:16:52.871Z,8.01
2022-11-28T13:19:30.353Z,7.99
2022-11-28T13:22:25.165Z,8.00
2022-11-28T13:25:09.946Z,8.05
2022-11-28T13:28:11.662Z,8.00
2022-11-28T13:30:49.403Z,7.99
2022-11-28T13:33:27.611Z,8.01
2022-11-28T13:35:54.874Z,8.03
2022-11-28T13:38:54.279Z,8.04
2022-11-28T13:42:13.899Z,8.03
2022-11-28T13:45:00.489Z,8.02
2022-11-28T13:47:34.837Z,8.01
2022-11-28T13:50:23.014Z,8.00
2022-11-28T13:53:08.150Z,8.00
2022-11-28T13:55:46.319Z,8.03
2022-11-28T13:58:24.033Z,7.97
2022-11-28T14:01:05.559Z,8.05
2022-11-28T14:03:44.264Z,8.02
2022-11-28T14:06:12.642Z,8.05
2022-11-28T14:08:41.565Z,8.04
2022-11-28T14:11:43.345Z,8.06
2022-11-28T14:14:15.641Z,8.05
2022-11-28T14:16:57.722Z,8.04
2022-11-28T14:20:02.840Z,8.02
2022-11-28T14:22:43.435Z,8.01
2022-11-28T14:25:18.364Z,8.00
2022-11-28T14:28:07.697Z,7.94
2022-11-28T14:30:39.830Z,7.99
2022-11-28T14:33:17.131Z,7.97
2022-11-28T14:35:52.552Z,7.93
2022-11-28T14:38:31.256Z,7.93
2022-11-28T14:41:12.769Z,7.95
2022-11-28T14:43:42.632Z,7.91
2022-11-28T14:46:23.215Z,7.90
2022-11-28T14:48:58.696Z,7.92
2022-11-28T14:52:00.016Z,7.87
2022-11-28T14:54:41.558Z,7.87
2022-11-28T14:57:21.978Z,7.91
2022-11-28T14:59:50.073Z,7.86
2022-11-28T15:02:32.377Z,7.86
2022-11-28T15:05:36.013Z,7.85
2022-11-28T15:08:21.217Z,7.85
2022-11-28T15:11:21.704Z,7.86
2022-11-28T15:14:10.081Z,7.86
2022-11-28T15:16:43.941Z,7.82
2022-11-28T15:19:22.738Z,7.80
2022-11-28T15:21:52.477Z,7.88
2022-11-28T15:24:30.354Z,7.81
2022-11-28T15:27:15.550Z,7.78
2022-11-28T15:29:41.938Z,7.81
2022-11-28T15:32:14.647Z,7.69
2022-11-28T15:34:41.235Z,7.76
2022-11-28T15:37:18.378Z,7.73
2022-11-28T15:39:49.733Z,7.76
2022-11-28T15:42:30.698Z,7.74
2022-11-28T15:45:06.202Z,7.73
2022-11-28T15:47:32.681Z,7.76
2022-11-28T15:50:19.971Z,7.71
2022-11-28T15:53:01.555Z,7.75
2022-11-28T15:55:31.178Z,7.70
2022-11-28T15:58:13.044Z,7.71
2022-11-28T16:00:43.312Z,7.67
2022-11-28T16:03:18.052Z,7.72
2022-11-28T16:05:47.454Z,7.73
2022-11-28T16:08:41.182Z,7.71
2022-11-28T16:11:10.248Z,7.69
2022-11-28T16:13:39.234Z,7.72
2022-11-28T16:16:12.914Z,7.75
2022-11-28T16:18:44.685Z,7.72
2022-11-28T16:21:13.750Z,7.71
2022-11-28T16:23:41.235Z,7.68
2022-11-28T16:26:32.804Z,7.70
2022-11-28T16:29:14.542Z,7.73
2022-11-28T16:31:43.951Z,7.70
2022-11-28T16:34:13.744Z,7.64
2022-11-28T16:36:42.548Z,7.66
2022-11-28T16:39:11.965Z,7.67
2022-11-28T16:42:06.230Z,7.70
2022-11-28T16:44:33.560Z,7.66
2022-11-28T16:47:00.764Z,7.66
2022-11-28T16:49:30.164Z,7.71
2022-11-28T16:52:21.681Z,7.69
2022-11-28T16:54:49.293Z,7.68
2022-11-28T16:57:16.060Z,7.65
2022-11-28T16:59:44.052Z,7.64
2022-11-28T17:02:19.450Z,7.67
2022-11-28T17:04:47.531Z,7.67
2022-11-28T17:07:16.745Z,7.70
2022-11-28T17:09:44.471Z,7.71
2022-11-28T17:12:33.865Z,7.72
2022-11-28T17:15:00.334Z,7.70
2022-11-28T17:17:27.794Z,7.71
2022-11-28T17:19:54.156Z,7.73
2022-11-28T17:22:26.156Z,7.73
2022-11-28T17:24:58.272Z,7.70
2022-11-28T17:27:24.616Z,7.73
2022-11-28T17:29:50.950Z,7.66
2022-11-28T17:32:17.550Z,7.72
2022-11-28T17:34:45.985Z,7.70
2022-11-28T17:37:12.584Z,7.71
2022-11-28T17:39:39.011Z,7.70
2022-11-28T17:42:05.916Z,7.68
2022-11-28T17:44:35.054Z,7.70
2022-11-28T17:47:02.287Z,7.70
2022-11-28T17:49:30.606Z,7.71
2022-11-28T17:51:57.524Z,7.69
2022-11-28T17:54:25.918Z,7.69
2022-11-28T17:56:53.314Z,7.67
2022-11-28T17:59:22.544Z,7.72
2022-11-28T18:01:49.535Z,7.63
2022-11-28T18:04:17.422Z,7.61
2022-11-28T18:06:45.910Z,7.74
2022-11-28T18:09:13.325Z,7.71
2022-11-28T18:11:43.384Z,7.74
2022-11-28T18:14:10.182Z,7.60
2022-11-28T18:16:36.916Z,7.73
2022-11-28T18:19:04.277Z,7.74
2022-11-28T18:21:31.409Z,7.74
2022-11-28T18:23:57.919Z,7.73
2022-11-28T18:26:26.029Z,7.73
2022-11-28T18:28:53.143Z,7.69
2022-11-28T18:31:23.042Z,7.70
2022-11-28T18:33:49.672Z,7.73
2022-11-28T18:36:22.153Z,7.72
2022-11-28T18:38:49.481Z,7.70
2022-11-28T18:41:17.528Z,7.75
2022-11-28T18:43:44.338Z,7.76
2022-11-28T18:46:13.377Z,7.72
2022-11-28T18:48:41.660Z,7.73
2022-11-28T18:51:15.492Z,7.73
2022-11-28T18:53:42.274Z,7.72
2022-11-28T18:56:09.345Z,7.74
2022-11-28T18:58:39.034Z,7.74
2022-11-28T19:01:13.971Z,7.72
2022-11-28T19:03:41.229Z,7.70
2022-11-28T19:06:10.326Z,7.77
2022-11-28T19:08:38.597Z,7.81
2022-11-28T19:11:09.474Z,7.78
2022-11-28T19:13:39.567Z,7.79
2022-11-28T19:16:18.883Z,7.75
2022-11-28T19:18:45.819Z,7.76
2022-11-28T19:21:15.711Z,7.74
2022-11-28T19:23:42.108Z,7.77
2022-11-28T19:26:11.601Z,7.80
2022-11-28T19:28:40.129Z,7.78
2022-11-28T19:31:17.153Z,7.81
2022-11-28T19:33:44.333Z,7.81
2022-11-28T19:36:12.942Z,7.76
2022-11-28T19:38:40.248Z,7.87
2022-11-28T19:41:11.392Z,7.85
2022-11-28T19:43:38.165Z,7.88
2022-11-28T19:46:05.015Z,7.88
2022-11-28T19:48:33.824Z,7.90
2022-11-28T19:51:00.973Z,7.87
2022-11-28T19:53:28.897Z,7.80
2022-11-28T19:55:55.983Z,7.91
2022-11-28T19:58:23.155Z,7.89
2022-11-28T20:00:49.647Z,7.90
2022-11-28T20:03:16.042Z,7.90
2022-11-28T20:05:42.401Z,7.90
2022-11-28T20:08:08.831Z,7.90
2022-11-28T20:10:36.761Z,7.93
2022-11-28T20:13:03.380Z,7.97
2022-11-28T20:15:29.748Z,7.92
2022-11-28T20:17:56.079Z,7.94
2022-11-28T20:20:22.453Z,7.93
2022-11-28T20:22:48.848Z,7.93
2022-11-28T20:25:19.273Z,7.95
2022-11-28T20:27:47.286Z,7.92
2022-11-28T20:30:14.363Z,7.94
2022-11-28T20:32:40.709Z,7.96
2022-11-28T20:35:09.373Z,7.97
2022-11-28T20:37:37.494Z,7.93
2022-11-28T20:40:04.192Z,7.98
2022-11-28T20:42:31.260Z,8.00
2022-11-28T20:44:59.717Z,8.02
2022-11-28T20:47:26.075Z,8.02
2022-11-28T20:49:52.444Z,8.02
2022-11-28T20:52:18.818Z,8.00
2022-11-28T20:54:45.168Z,8.00
2022-11-28T20:57:21.259Z,8.05
2022-11-28T20:59:47.965Z,8.05
2022-11-28T21:02:14.402Z,8.02
2022-11-28T21:04:40.779Z,8.02
2022-11-28T21:07:07.149Z,8.03
2022-11-28T21:09:33.510Z,8.03
2022-11-28T21:11:59.864Z,8.05
2022-11-28T21:14:29.923Z,8.03
2022-11-28T21:16:57.626Z,8.07
2022-11-28T21:19:24.374Z,7.97
2022-11-28T21:21:50.838Z,7.94
2022-11-28T21:24:17.207Z,8.08
2022-11-28T21:26:48.126Z,8.07
2022-11-28T21:29:19.737Z,8.08
2022-11-28T21:31:46.641Z,8.11
2022-11-28T21:34:14.651Z,8.05
2022-11-28T21:36:41.889Z,8.08
2022-11-28T21:39:16.011Z,8.11
2022-11-28T21:41:42.557Z,8.11
2022-11-28T21:44:08.931Z,8.13
2022-11-28T21:46:35.353Z,8.15
2022-11-28T21:49:01.847Z,8.15
2022-11-28T21:51:28.667Z,8.17
2022-11-28T21:53:57.228Z,8.22
2022-11-28T21:56:24.145Z,8.19
2022-11-28T21:58:50.468Z,8.19
2022-11-28T22:01:17.015Z,8.17
2022-11-28T22:03:43.935Z,8.14
2022-11-28T22:06:22.184Z,8.15
2022-11-28T22:08:49.076Z,8.23
2022-11-28T22:11:16.758Z,8.25
2022-11-28T22:13:45.726Z,8.19
2022-11-28T22:16:16.851Z,8.21
2022-11-28T22:18:43.833Z,8.24
2022-11-28T22:21:43.317Z,8.23
2022-11-28T22:23:57.453Z,8.23
2022-11-28T22:26:23.899Z,8.28
2022-11-28T22:28:53.827Z,8.27
2022-11-28T22:31:20.993Z,8.31
2022-11-28T22:33:49.537Z,8.31
2022-11-28T22:36:18.306Z,8.23
2022-11-28T22:38:46.223Z,8.30
2022-11-28T22:41:24.659Z,8.31
2022-11-28T22:43:55.627Z,8.28
2022-11-28T22:46:22.415Z,8.22
2022-11-28T22:48:48.881Z,8.29
2022-11-28T22:51:18.589Z,8.31
2022-11-28T22:53:45.034Z,8.30
2022-11-28T22:56:14.844Z,8.28
2022-11-28T22:58:43.734Z,8.26
2022-11-28T23:01:17.127Z,8.28
2022-11-28T23:03:44.200Z,8.30
2022-11-28T23:06:13.547Z,8.32
2022-11-28T23:08:40.132Z,8.35
2022-11-28T23:11:14.603Z,8.28
2022-11-28T23:13:41.937Z,8.20
2022-11-28T23:16:13.363Z,8.24
2022-11-28T23:18:40.419Z,8.34
2022-11-28T23:21:07.318Z,8.35
2022-11-28T23:23:35.776Z,8.31
2022-11-28T23:26:13.925Z,8.41
2022-11-28T23:28:41.055Z,8.43
2022-11-28T23:31:21.702Z,8.41
2022-11-28T23:33:48.646Z,8.44
2022-11-28T23:36:21.278Z,8.32
2022-11-28T23:38:50.293Z,8.37
2022-11-28T23:41:16.777Z,8.35
2022-11-28T23:43:43.541Z,8.33
2022-11-28T23:46:10.906Z,8.29
2022-11-28T23:48:39.260Z,8.26
2022-11-28T23:51:06.538Z,8.31
2022-11-28T23:53:36.580Z,8.13
2022-11-28T23:56:11.304Z,8.11
2022-11-28T23:58:38.048Z,8.22
